createdAt,value
2022-11-08T00:00:47.268Z,21.52
2022-11-08T00:03:14.559Z,21.05
2022-11-08T00:06:10.690Z,18.52
2022-11-08T00:08:56.970Z,23.88
2022-11-08T00:11:43.849Z,21.90
2022-11-08T00:14:11.755Z,25.80
2022-11-08T00:16:39.232Z,22.65
2022-11-08T00:19:10.897Z,24.88
2022-11-08T00:21:38.592Z,26.45
2022-11-08T00:24:06.549Z,24.40
2022-11-08T00:26:36.477Z,27.30
2022-11-08T00:29:04.615Z,22.23
2022-11-08T00:31:32.394Z,22.35
2022-11-08T00:34:00.145Z,24.92
2022-11-08T00:36:28.034Z,22.42
2022-11-08T00:38:56.108Z,21.65
2022-11-08T00:41:23.719Z,23.67
2022-11-08T00:43:51.328Z,22.83
2022-11-08T00:46:19.186Z,21.33
2022-11-08T00:48:49.728Z,21.60
2022-11-08T00:51:17.219Z,24.23
2022-11-08T00:53:45.517Z,16.17
2022-11-08T00:56:14.463Z,23.25
2022-11-08T00:58:43.941Z,18.45
2022-11-08T01:01:14.702Z,19.45
2022-11-08T01:03:43.284Z,23.33
2022-11-08T01:06:13.163Z,21.25
2022-11-08T01:08:42.218Z,20.45
2022-11-08T01:11:13.885Z,21.25
2022-11-08T01:13:41.584Z,20.85
2022-11-08T01:16:15.636Z,23.58
2022-11-08T01:18:45.102Z,23.73
2022-11-08T01:21:14.709Z,21.85
2022-11-08T01:23:45.312Z,21.02
2022-11-08T01:26:15.249Z,23.55
2022-11-08T01:28:42.631Z,22.70
2022-11-08T01:31:20.468Z,22.73
2022-11-08T01:33:51.219Z,26.87
2022-11-08T01:36:25.210Z,25.13
2022-11-08T01:38:55.954Z,24.60
2022-11-08T01:41:26.045Z,25.52
2022-11-08T01:44:00.530Z,23.60
2022-11-08T01:46:36.793Z,21.77
2022-11-08T01:49:20.237Z,24.02
2022-11-08T01:51:58.259Z,23.38
2022-11-08T01:54:39.669Z,22.30
2022-11-08T01:57:10.960Z,19.45
2022-11-08T01:59:44.784Z,20.53
2022-11-08T02:02:14.292Z,21.67
2022-11-08T02:04:43.828Z,21.25
2022-11-08T02:07:20.755Z,22.20
2022-11-08T02:09:48.620Z,20.60
2022-11-08T02:12:20.044Z,20.55
2022-11-08T02:14:47.572Z,19.55
2022-11-08T02:17:15.089Z,21.00
2022-11-08T02:19:45.772Z,20.65
2022-11-08T02:22:29.916Z,21.73
2022-11-08T02:25:00.631Z,22.15
2022-11-08T02:27:27.888Z,23.00
2022-11-08T02:29:56.227Z,20.27
2022-11-08T02:32:23.952Z,20.43
2022-11-08T02:34:56.294Z,20.92
2022-11-08T02:37:24.228Z,20.87
2022-11-08T02:39:52.761Z,19.90
2022-11-08T02:42:20.727Z,20.85
2022-11-08T02:44:48.492Z,21.73
2022-11-08T02:47:16.546Z,21.13
2022-11-08T02:49:44.055Z,23.38
2022-11-08T02:52:13.508Z,19.97
2022-11-08T02:54:44.077Z,22.00
2022-11-08T02:57:11.909Z,23.05
2022-11-08T02:59:39.872Z,19.65
2022-11-08T03:02:07.340Z,23.20
2022-11-08T03:04:34.857Z,20.38
2022-11-08T03:07:03.085Z,24.40
2022-11-08T03:09:30.524Z,20.25
2022-11-08T03:11:57.779Z,21.17
2022-11-08T03:14:25.499Z,19.97
2022-11-08T03:16:53.026Z,20.07
2022-11-08T03:19:20.325Z,20.15
2022-11-08T03:21:49.175Z,19.63
2022-11-08T03:24:16.436Z,19.23
2022-11-08T03:29:14.765Z,18.00
2022-11-08T03:31:41.979Z,18.75
2022-11-08T03:34:10.589Z,18.38
2022-11-08T03:36:37.900Z,17.83
2022-11-08T03:39:05.085Z,17.88
2022-11-08T03:41:32.368Z,17.38
2022-11-08T03:43:59.517Z,16.48
2022-11-08T03:46:26.720Z,16.77
2022-11-08T03:48:53.953Z,17.67
2022-11-08T03:51:21.203Z,18.10
2022-11-08T03:53:48.470Z,20.45
2022-11-08T03:56:15.703Z,21.65
2022-11-08T03:58:42.893Z,20.95
2022-11-08T04:01:10.187Z,21.10
2022-11-08T04:03:37.543Z,18.33
2022-11-08T04:06:04.904Z,19.75
2022-11-08T04:08:32.164Z,20.70
2022-11-08T04:11:22.673Z,20.08
2022-11-08T04:14:08.512Z,18.13
2022-11-08T04:16:35.868Z,20.75
2022-11-08T04:19:21.531Z,18.58
2022-11-08T04:21:51.700Z,19.05
2022-11-08T04:24:18.994Z,18.45
2022-11-08T04:26:46.710Z,18.50
2022-11-08T04:29:14.315Z,20.50
2022-11-08T04:31:42.041Z,20.35
2022-11-08T04:34:09.351Z,17.13
2022-11-08T04:36:36.552Z,19.13
2022-11-08T04:39:04.136Z,20.52
2022-11-08T04:41:31.373Z,18.73
2022-11-08T04:43:58.735Z,19.05
2022-11-08T04:46:27.832Z,22.02
2022-11-08T04:48:57.131Z,19.00
2022-11-08T04:51:34.051Z,18.85
2022-11-08T04:54:02.795Z,21.90
2022-11-08T04:56:30.722Z,20.90
2022-11-08T04:58:59.799Z,22.25
2022-11-08T05:01:29.345Z,19.98
2022-11-08T05:03:57.208Z,20.90
2022-11-08T05:06:26.823Z,19.98
2022-11-08T05:08:55.715Z,20.65
2022-11-08T05:11:24.522Z,20.70
2022-11-08T05:13:52.649Z,20.92
2022-11-08T05:16:25.452Z,20.27
2022-11-08T05:18:53.471Z,19.92
2022-11-08T05:21:40.847Z,19.45
2022-11-08T05:24:11.963Z,21.73
2022-11-08T05:26:42.524Z,18.42
2022-11-08T05:29:11.135Z,19.03
2022-11-08T05:31:38.786Z,19.42
2022-11-08T05:34:07.348Z,18.08
2022-11-08T05:36:34.584Z,21.25
2022-11-08T05:39:01.888Z,19.90
2022-11-08T05:41:29.677Z,21.70
2022-11-08T05:43:56.949Z,19.15
2022-11-08T05:46:24.590Z,16.35
2022-11-08T05:48:52.189Z,19.40
2022-11-08T05:51:20.109Z,20.00
2022-11-08T05:53:48.597Z,19.85
2022-11-08T05:56:16.608Z,22.58
2022-11-08T05:58:44.634Z,19.67
2022-11-08T06:01:14.146Z,18.80
2022-11-08T06:03:41.745Z,19.60
2022-11-08T06:06:15.896Z,19.25
2022-11-08T06:08:48.989Z,18.52
2022-11-08T06:11:23.491Z,18.67
2022-11-08T06:13:52.419Z,18.77
2022-11-08T06:16:21.743Z,19.93
2022-11-08T06:18:49.020Z,17.73
2022-11-08T06:21:18.847Z,20.42
2022-11-08T06:23:46.107Z,18.55
2022-11-08T06:26:13.845Z,17.10
2022-11-08T06:28:41.224Z,16.65
2022-11-08T06:31:08.601Z,19.58
2022-11-08T06:33:35.938Z,20.52
2022-11-08T06:36:03.271Z,19.17
2022-11-08T06:38:30.596Z,20.60
2022-11-08T06:41:01.677Z,16.25
2022-11-08T06:43:29.238Z,18.43
2022-11-08T06:46:01.423Z,18.92
2022-11-08T06:48:33.984Z,20.83
2022-11-08T06:51:03.864Z,15.82
2022-11-08T06:53:31.160Z,18.40
2022-11-08T06:56:02.511Z,16.13
2022-11-08T06:58:30.899Z,17.27
2022-11-08T07:00:58.596Z,17.10
2022-11-08T07:03:25.947Z,17.38
2022-11-08T07:05:53.173Z,18.27
2022-11-08T07:08:23.745Z,18.27
2022-11-08T07:10:51.638Z,17.33
2022-11-08T07:13:19.335Z,19.08
2022-11-08T07:15:49.974Z,17.90
2022-11-08T07:18:19.443Z,17.00
2022-11-08T07:20:46.990Z,16.33
2022-11-08T07:23:14.603Z,17.80
2022-11-08T07:25:42.295Z,18.38
2022-11-08T07:28:16.095Z,16.92
2022-11-08T07:30:44.560Z,17.58
2022-11-08T07:33:12.942Z,19.33
2022-11-08T07:35:40.255Z,21.95
2022-11-08T07:38:07.756Z,19.13
2022-11-08T07:40:35.301Z,21.75
2022-11-08T07:43:11.807Z,14.10
2022-11-08T07:45:41.108Z,15.00
2022-11-08T07:48:12.660Z,17.33
2022-11-08T07:50:43.754Z,15.35
2022-11-08T07:53:11.069Z,14.77
2022-11-08T07:55:40.238Z,15.32
2022-11-08T07:58:09.806Z,18.08
2022-11-08T08:00:38.546Z,18.95
2022-11-08T08:03:08.619Z,18.20
2022-11-08T08:05:38.605Z,18.67
2022-11-08T08:08:06.290Z,14.38
2022-11-08T08:10:34.628Z,18.27
2022-11-08T08:13:02.115Z,17.35
2022-11-08T08:15:29.683Z,21.45
2022-11-08T08:17:59.725Z,19.48
2022-11-08T08:20:27.270Z,16.02
2022-11-08T08:22:54.619Z,20.73
2022-11-08T08:25:21.880Z,22.42
2022-11-08T08:30:21.656Z,21.95
2022-11-08T08:33:02.116Z,20.27
2022-11-08T08:35:37.184Z,23.08
2022-11-08T08:38:05.812Z,21.52
2022-11-08T08:40:33.914Z,21.52
2022-11-08T08:43:03.279Z,21.17
2022-11-08T08:45:32.411Z,21.73
2022-11-08T08:48:00.350Z,19.17
2022-11-08T08:50:29.776Z,17.90
2022-11-08T08:52:59.123Z,20.10
2022-11-08T08:55:27.283Z,18.70
2022-11-08T08:57:54.956Z,21.48
2022-11-08T09:03:11.307Z,22.38
2022-11-08T09:05:41.760Z,18.50
2022-11-08T09:08:09.306Z,16.10
2022-11-08T09:10:37.000Z,18.90
2022-11-08T09:13:04.590Z,19.00
2022-11-08T09:15:32.248Z,15.25
2022-11-08T09:17:59.590Z,16.48
2022-11-08T09:20:26.939Z,17.67
2022-11-08T09:22:54.121Z,13.25
2022-11-08T09:25:21.380Z,14.27
2022-11-08T09:27:48.689Z,14.65
2022-11-08T09:30:16.064Z,15.07
2022-11-08T09:35:31.869Z,10.98
2022-11-08T09:38:00.117Z,12.52
2022-11-08T09:40:40.685Z,10.55
2022-11-08T09:43:26.232Z,20.88
2022-11-08T09:45:56.413Z,17.92
2022-11-08T09:48:33.456Z,13.77
2022-11-08T09:51:12.396Z,13.85
2022-11-08T10:43:17.809Z,14.90
2022-11-08T10:45:45.789Z,13.65
2022-11-08T10:48:14.387Z,17.42
2022-11-08T10:50:53.432Z,25.10
2022-11-08T10:53:27.633Z,19.65
2022-11-08T10:56:05.285Z,16.05
2022-11-08T10:58:38.930Z,20.15
2022-11-08T11:01:13.979Z,16.35
2022-11-08T11:03:43.035Z,19.73
2022-11-08T11:06:33.053Z,22.35
2022-11-08T11:09:04.828Z,16.27
2022-11-08T11:11:32.771Z,20.08
2022-11-08T11:14:18.137Z,16.20
2022-11-08T11:17:14.798Z,20.63
2022-11-08T11:19:57.674Z,16.92
2022-11-08T11:22:32.525Z,18.98
2022-11-08T11:25:15.842Z,16.40
2022-11-08T11:27:48.228Z,21.25
2022-11-08T11:30:28.800Z,17.25
2022-11-08T11:33:13.543Z,19.75
2022-11-08T11:35:57.652Z,16.02
2022-11-08T11:38:38.562Z,17.27
2022-11-08T11:41:16.974Z,17.73
2022-11-08T11:44:03.023Z,17.17
2022-11-08T11:46:41.970Z,17.55
2022-11-08T11:49:19.510Z,17.88
2022-11-08T11:51:46.965Z,15.13
2022-11-08T11:54:16.041Z,15.23
2022-11-08T11:57:05.161Z,17.98
2022-11-08T12:00:04.887Z,14.35
2022-11-08T12:03:03.340Z,18.55
2022-11-08T12:06:07.101Z,17.00
2022-11-08T12:08:58.859Z,17.40
2022-11-08T12:11:50.484Z,16.42
2022-11-08T12:14:19.949Z,15.65
2022-11-08T12:17:17.883Z,13.68
2022-11-08T12:20:11.629Z,20.25
2022-11-08T12:22:50.476Z,15.63
2022-11-08T15:29:49.495Z,9.07
2022-11-08T15:32:19.006Z,6.60
2022-11-08T15:34:46.845Z,7.93
2022-11-08T15:37:36.324Z,8.57
2022-11-08T15:40:07.274Z,10.20
2022-11-08T15:42:34.962Z,9.38
2022-11-08T15:45:05.017Z,12.27
2022-11-08T15:47:41.354Z,11.80
2022-11-08T15:50:25.806Z,8.07
2022-11-08T15:52:55.692Z,9.85
2022-11-08T15:55:26.158Z,9.52
2022-11-08T15:57:54.471Z,11.97
2022-11-08T16:00:46.294Z,10.65
2022-11-08T16:03:13.904Z,15.20
2022-11-08T16:05:41.309Z,11.43
2022-11-08T16:08:08.925Z,13.05
2022-11-08T16:10:47.963Z,14.48
2022-11-08T16:13:15.181Z,14.50
2022-11-08T16:15:42.554Z,15.35
2022-11-08T16:18:10.231Z,15.23
2022-11-08T16:20:38.423Z,9.82
2022-11-08T16:23:08.658Z,14.40
2022-11-08T16:25:42.373Z,14.15
2022-11-08T16:28:36.241Z,13.30
2022-11-08T16:31:10.608Z,16.77
2022-11-08T16:33:37.918Z,16.23
2022-11-08T16:36:13.896Z,12.90
2022-11-08T16:38:41.315Z,15.77
2022-11-08T16:41:10.162Z,16.33
2022-11-08T16:43:37.393Z,12.93
2022-11-08T16:46:06.904Z,14.32
2022-11-08T16:48:36.620Z,15.43
2022-11-08T16:51:06.696Z,16.20
2022-11-08T16:53:36.676Z,15.55
2022-11-08T16:56:04.227Z,15.82
2022-11-08T16:58:31.439Z,16.38
2022-11-08T17:00:58.750Z,16.60
2022-11-08T17:03:29.428Z,20.23
2022-11-08T17:05:58.010Z,21.50
2022-11-08T17:08:25.896Z,17.98
2022-11-08T17:10:53.751Z,18.40
2022-11-08T17:13:22.011Z,20.23
2022-11-08T17:15:50.645Z,24.30
2022-11-08T17:18:21.162Z,34.22
2022-11-08T17:20:49.180Z,49.65
2022-11-08T17:23:16.441Z,47.88
2022-11-08T17:25:44.448Z,53.10
2022-11-08T17:28:12.814Z,43.70
2022-11-08T17:30:44.213Z,42.50
2022-11-08T17:33:13.113Z,37.00
2022-11-08T17:35:43.902Z,38.28
2022-11-08T17:38:12.752Z,30.65
2022-11-08T17:40:42.116Z,27.20
2022-11-08T17:43:09.694Z,26.92
2022-11-08T17:45:36.995Z,26.33
2022-11-08T17:48:04.240Z,24.47
2022-11-08T17:50:31.442Z,22.50
2022-11-08T17:52:58.723Z,21.85
2022-11-08T17:55:25.983Z,19.48
2022-11-08T17:57:53.184Z,23.83
2022-11-08T18:00:21.160Z,19.60
2022-11-08T18:02:48.349Z,18.97
2022-11-08T18:05:15.739Z,19.95
2022-11-08T18:07:43.100Z,21.05
2022-11-08T18:10:10.416Z,17.50
2022-11-08T18:12:37.648Z,19.05
2022-11-08T18:15:06.125Z,18.10
2022-11-08T18:17:33.275Z,19.92
2022-11-08T18:20:01.172Z,20.50
2022-11-08T18:22:28.348Z,23.67
2022-11-08T18:24:55.603Z,24.80
2022-11-08T18:27:23.176Z,22.23
2022-11-08T18:29:50.476Z,21.53
2022-11-08T18:32:17.644Z,22.35
2022-11-08T18:34:44.960Z,21.15
2022-11-08T18:37:12.119Z,26.58
2022-11-08T18:39:39.283Z,21.30
2022-11-08T18:42:06.724Z,19.73
2022-11-08T18:44:33.891Z,22.30
2022-11-08T18:47:01.223Z,19.35
2022-11-08T18:49:28.447Z,19.55
2022-11-08T18:51:56.719Z,17.97
2022-11-08T18:54:24.132Z,20.48
2022-11-08T18:56:51.297Z,18.50
2022-11-08T18:59:18.608Z,20.73
2022-11-08T19:01:45.843Z,20.00
2022-11-08T19:04:13.294Z,19.92
2022-11-08T19:06:40.691Z,21.10
2022-11-08T19:09:08.100Z,19.30
2022-11-08T19:11:36.408Z,22.65
2022-11-08T19:14:03.793Z,20.63
2022-11-08T19:16:31.241Z,24.50
2022-11-08T19:23:58.436Z,29.80
2022-11-08T19:26:27.977Z,23.10
2022-11-08T19:28:56.636Z,27.40
2022-11-08T19:31:25.561Z,29.42
2022-11-08T19:33:54.196Z,27.63
2022-11-08T19:36:27.021Z,24.48
